createdAt,value
2018-05-06T00:03:13.146Z,6.45
2018-05-06T00:09:08.130Z,6.05
2018-05-06T00:15:03.177Z,6.43
2018-05-06T00:20:58.124Z,5.45
2018-05-06T00:26:53.108Z,6.83
2018-05-06T00:32:48.142Z,5.84
2018-05-06T00:38:43.168Z,6.41
2018-05-06T00:44:38.127Z,6.21
2018-05-06T00:50:33.126Z,8.84
2018-05-06T00:56:28.144Z,5.9
2018-05-06T01:02:23.125Z,5.95
2018-05-06T01:08:18.123Z,5.31
2018-05-06T01:14:13.164Z,5.73
2018-05-06T01:20:08.154Z,7.34
2018-05-06T01:26:03.178Z,6.67
2018-05-06T01:31:58.164Z,5.53
2018-05-06T01:37:53.146Z,5.5
2018-05-06T01:43:48.108Z,6.93
2018-05-06T01:49:43.158Z,6.07
2018-05-06T01:55:38.139Z,6.15
2018-05-06T02:01:33.153Z,6.44
2018-05-06T02:07:28.153Z,5.69
2018-05-06T02:13:23.149Z,6.03
2018-05-06T02:19:18.190Z,6.74
2018-05-06T02:25:13.160Z,5.83
2018-05-06T02:31:08.143Z,6.5
2018-05-06T02:37:03.148Z,6.21
2018-05-06T02:42:58.124Z,6.59
2018-05-06T02:48:53.168Z,6.82
2018-05-06T02:54:48.152Z,6.99
2018-05-06T03:00:43.143Z,6.62
2018-05-06T03:06:38.147Z,6.24
2018-05-06T03:12:33.187Z,5.9
2018-05-06T03:18:28.189Z,5.86
2018-05-06T03:24:23.148Z,6.1
2018-05-06T03:30:18.156Z,6.7
2018-05-06T03:36:13.123Z,6.47
2018-05-06T03:42:08.168Z,6.89
2018-05-06T03:48:03.200Z,7.11
2018-05-06T03:53:58.164Z,8.1
2018-05-06T03:59:53.169Z,6.98
2018-05-06T04:05:48.218Z,7.37
2018-05-06T04:11:43.229Z,7.61
2018-05-06T04:17:38.173Z,7.24
2018-05-06T04:23:33.210Z,7.1
2018-05-06T04:29:28.157Z,7.32
2018-05-06T04:35:23.171Z,6.88
2018-05-06T04:41:18.127Z,7.26
2018-05-06T04:47:13.167Z,6.98
2018-05-06T04:53:08.124Z,7.68
2018-05-06T04:59:03.152Z,7.52
2018-05-06T05:04:58.168Z,11.38
2018-05-06T05:10:53.174Z,16.26
2018-05-06T05:16:48.184Z,10.87
2018-05-06T05:22:43.155Z,9.77
2018-05-06T05:28:38.167Z,12.05
2018-05-06T05:34:33.186Z,12.97
2018-05-06T05:40:28.179Z,10.73
2018-05-06T05:46:23.149Z,10.46
2018-05-06T05:52:18.177Z,10.61
2018-05-06T05:58:13.198Z,11.51
2018-05-06T06:04:08.168Z,11.4
2018-05-06T06:10:03.292Z,10.5
2018-05-06T06:15:58.205Z,9.5
2018-05-06T06:21:53.162Z,9.53
2018-05-06T06:27:48.160Z,10.87
2018-05-06T06:33:43.172Z,11.33
2018-05-06T06:39:38.163Z,11.73
2018-05-06T06:45:33.177Z,11.13
2018-05-06T06:51:28.195Z,11.55
2018-05-06T06:57:23.168Z,10.97
2018-05-06T07:03:18.202Z,12.16
2018-05-06T07:09:13.236Z,16.8
2018-05-06T07:15:08.148Z,27.07
2018-05-06T07:21:03.154Z,30.21
2018-05-06T07:26:58.162Z,29.04
2018-05-06T07:32:53.206Z,26.9
2018-05-06T07:38:48.163Z,25.47
2018-05-06T07:44:43.199Z,26.06
2018-05-06T07:50:38.182Z,24.87
2018-05-06T07:56:33.174Z,18.55
2018-05-06T08:02:28.170Z,16.41
2018-05-06T08:08:23.208Z,16.14
2018-05-06T08:14:18.191Z,15.24
2018-05-06T08:20:13.190Z,12.1
2018-05-06T08:26:08.196Z,13.18
2018-05-06T08:32:03.171Z,13.48
2018-05-06T08:37:58.183Z,14.33
2018-05-06T08:43:53.264Z,12.73
2018-05-06T08:49:48.233Z,13.69
2018-05-06T08:55:43.190Z,13.06
2018-05-06T09:01:38.172Z,15.15
2018-05-06T09:07:33.224Z,13.58
2018-05-06T09:13:28.179Z,13.87
2018-05-06T09:19:23.223Z,11.7
2018-05-06T09:25:18.191Z,11.42
2018-05-06T09:31:13.214Z,12.27
2018-05-06T09:37:08.218Z,12.32
2018-05-06T09:43:03.197Z,12.77
2018-05-06T09:48:58.224Z,11.59
2018-05-06T09:54:53.234Z,13.23
2018-05-06T10:00:48.251Z,13.8
2018-05-06T10:06:43.216Z,8.7
2018-05-06T10:12:38.218Z,7.68
2018-05-06T10:18:33.218Z,8.97
2018-05-06T10:24:28.244Z,10.57
2018-05-06T10:30:23.300Z,6.81
2018-05-06T10:36:18.236Z,12.3
2018-05-06T10:42:13.204Z,9.25
2018-05-06T10:48:08.229Z,9.8
2018-05-06T10:54:03.248Z,6.1
2018-05-06T10:59:58.235Z,6.85
2018-05-06T11:05:53.301Z,7.2
2018-05-06T11:11:48.251Z,6.92
2018-05-06T11:17:43.247Z,7.3
2018-05-06T11:23:38.242Z,7.16
2018-05-06T11:29:33.254Z,7.65
2018-05-06T11:35:28.255Z,7.29
2018-05-06T11:41:23.225Z,7.55
2018-05-06T11:47:18.217Z,7.49
2018-05-06T11:53:13.244Z,6.98
2018-05-06T11:59:08.248Z,7.65
2018-05-06T12:05:03.250Z,7.97
2018-05-06T12:10:58.243Z,7.12
2018-05-06T12:16:53.227Z,7.27
2018-05-06T12:22:48.298Z,7.68
2018-05-06T12:28:43.304Z,7.13
2018-05-06T12:34:38.299Z,8.33
2018-05-06T12:40:33.252Z,8.38
2018-05-06T12:46:28.280Z,8.18
2018-05-06T12:52:23.318Z,8.02
2018-05-06T12:58:18.283Z,7.75
2018-05-06T13:04:13.272Z,8.03
2018-05-06T13:10:08.299Z,7.8
2018-05-06T13:16:03.248Z,7.35
2018-05-06T13:21:58.266Z,8.56
2018-05-06T13:27:53.248Z,8.68
2018-05-06T13:33:48.309Z,8.59
2018-05-06T13:39:43.317Z,8.22
2018-05-06T13:45:38.382Z,9.1
2018-05-06T13:51:33.271Z,8.71
2018-05-06T13:57:28.281Z,8.19
2018-05-06T14:03:23.297Z,8.61
2018-05-06T14:09:18.282Z,8.54
2018-05-06T14:15:13.333Z,8.93
2018-05-06T14:21:08.288Z,8.47
2018-05-06T14:27:03.328Z,8.61
2018-05-06T14:32:58.311Z,8.76
2018-05-06T14:38:53.330Z,7.9
2018-05-06T14:44:48.278Z,8.23
2018-05-06T14:50:43.311Z,8.49
2018-05-06T14:56:38.299Z,8.33
2018-05-06T15:02:33.325Z,8.8
2018-05-06T15:08:28.335Z,9.01
2018-05-06T15:14:23.319Z,8.04
2018-05-06T15:20:18.346Z,8.83
2018-05-06T15:26:13.321Z,9.35
2018-05-06T15:32:08.339Z,7.82
2018-05-06T15:38:03.345Z,8.33
2018-05-06T15:43:58.308Z,8.33
2018-05-06T15:49:53.316Z,8.07
2018-05-06T15:55:48.324Z,8.58
2018-05-06T16:01:43.359Z,8.63
2018-05-06T16:07:38.319Z,8.55
2018-05-06T16:13:33.364Z,8.68
2018-05-06T16:19:28.404Z,7.97
2018-05-06T16:25:23.324Z,8.03
2018-05-06T16:31:18.346Z,8.81
2018-05-06T16:37:13.336Z,10.79
2018-05-06T16:43:08.372Z,9.93
2018-05-06T16:49:03.377Z,10.64
2018-05-06T16:54:58.354Z,10.33
2018-05-06T17:00:53.376Z,10.13
2018-05-06T17:06:48.376Z,10.54
2018-05-06T17:12:43.429Z,10.5
2018-05-06T17:18:38.366Z,10.59
2018-05-06T17:24:33.380Z,9.82
2018-05-06T17:30:28.356Z,10.83
2018-05-06T17:36:23.352Z,10.34
2018-05-06T17:42:18.344Z,10.2
2018-05-06T17:48:13.374Z,9.96
2018-05-06T17:54:08.340Z,10.34
2018-05-06T18:00:03.383Z,9.67
2018-05-06T18:05:58.362Z,10.29
2018-05-06T18:11:53.405Z,9.55
2018-05-06T18:17:48.442Z,9.72
2018-05-06T18:23:43.411Z,9.68
2018-05-06T18:29:38.431Z,12.73
2018-05-06T18:35:33.415Z,17.77
2018-05-06T18:41:28.378Z,11.47
2018-05-06T18:47:23.437Z,10.95
2018-05-06T18:53:18.433Z,12.63
2018-05-06T18:59:13.377Z,10.9
2018-05-06T19:05:08.385Z,11.16
2018-05-06T19:11:03.387Z,10.27
2018-05-06T19:16:58.465Z,12.15
2018-05-06T19:22:53.412Z,13.55
2018-05-06T19:28:48.413Z,30.43
2018-05-06T19:34:43.416Z,28.52
2018-05-06T19:40:38.374Z,38.06
2018-05-06T19:46:33.380Z,13.55
2018-05-06T19:52:28.392Z,10.32
2018-05-06T19:58:23.394Z,10.45
2018-05-06T20:04:18.437Z,9.47
2018-05-06T20:10:13.426Z,9.84
2018-05-06T20:16:08.508Z,10.27
2018-05-06T20:22:03.466Z,9.78
2018-05-06T20:27:58.425Z,9.6
2018-05-06T20:33:53.434Z,9.77
2018-05-06T20:39:48.408Z,9.54
2018-05-06T20:45:43.416Z,9.96
2018-05-06T20:51:38.420Z,10.76
2018-05-06T20:57:33.423Z,9.87
2018-05-06T21:03:28.405Z,10.64
2018-05-06T21:09:23.441Z,9.54
2018-05-06T21:15:18.407Z,9.99
2018-05-06T21:21:13.462Z,9.98
2018-05-06T21:27:08.438Z,10.25
2018-05-06T21:33:03.533Z,10.42
2018-05-06T21:38:58.423Z,11
2018-05-06T21:44:53.508Z,9.76
2018-05-06T21:50:48.424Z,10.26
2018-05-06T21:56:43.503Z,11
2018-05-06T22:02:38.429Z,10.64
2018-05-06T22:08:33.423Z,11.28
2018-05-06T22:14:28.449Z,10.64
2018-05-06T22:20:23.399Z,11.92
2018-05-06T22:26:18.394Z,11.23
2018-05-06T22:32:13.444Z,10.25
2018-05-06T22:38:08.425Z,10.97
2018-05-06T22:44:03.449Z,11.31
2018-05-06T22:49:58.409Z,11.1
2018-05-06T22:55:53.435Z,11.97
2018-05-06T23:01:48.519Z,12.42
2018-05-06T23:07:43.415Z,10.94
2018-05-06T23:13:38.443Z,10.79
2018-05-06T23:19:33.408Z,11.55
2018-05-06T23:25:28.429Z,11.88
2018-05-06T23:31:23.474Z,11.39
2018-05-06T23:37:18.412Z,12.44
2018-05-06T23:43:13.504Z,12.33
2018-05-06T23:49:08.428Z,12.09
2018-05-06T23:55:03.409Z,12.55
